Time;durP1;ratioP1;P1;durP2;ratioP2;P2;SDS_P1;SDS_P2;PMS_P1;PMS_P2;Temp;Humidity;BMP_temperature;BMP_pressure;BME280_temperature;BME280_humidity;BME280_pressure;Samples;Min_cycle;Max_cycle;Signal;HPM_P1;HPM_P2
2021/04/07 00:00:32;;;;;;;16.77;1.00;;;2.90;1.00;;;;;;5071975;28;20548;-72
2021/04/07 00:03:06;;;;;;;1.50;1.40;;;2.90;1.00;;;;;;5073364;28;20740;-72
2021/04/07 00:05:37;;;;;;;11.05;1.05;;;2.90;1.00;;;;;;5070078;28;20177;-72
2021/04/07 00:08:04;;;;;;;1.52;1.00;;;2.90;1.00;;;;;;5054547;28;20540;-72
2021/04/07 00:10:39;;;;;;;0.95;0.95;;;2.70;1.00;;;;;;5072899;28;20286;-72
2021/04/07 00:13:06;;;;;;;1.48;0.95;;;2.60;1.00;;;;;;5073152;28;20196;-72
2021/04/07 00:15:34;;;;;;;9.18;0.77;;;2.50;1.00;;;;;;5072940;28;20177;-73
2021/04/07 00:18:02;;;;;;;1.85;1.20;;;2.50;1.00;;;;;;5073015;28;20225;-72
2021/04/07 00:20:34;;;;;;;1.13;1.00;;;2.40;1.00;;;;;;5070080;28;20167;-72
2021/04/07 00:23:01;;;;;;;1.98;1.67;;;2.30;1.00;;;;;;5073647;28;20160;-73
2021/04/07 00:25:27;;;;;;;1.75;0.70;;;2.30;1.00;;;;;;5073083;28;20163;-73
2021/04/07 00:27:54;;;;;;;5.80;1.10;;;2.30;1.00;;;;;;5072921;28;20228;-72
2021/04/07 00:30:25;;;;;;;1.30;1.20;;;2.30;1.00;;;;;;5072451;28;20197;-72
2021/04/07 00:32:51;;;;;;;4.50;1.10;;;2.20;1.00;;;;;;5072948;28;20156;-72
2021/04/07 00:35:17;;;;;;;0.77;0.60;;;2.20;1.00;;;;;;5073244;28;20518;-72
2021/04/07 00:37:43;;;;;;;1.77;1.20;;;2.10;1.00;;;;;;5072698;28;20179;-72
2021/04/07 00:40:09;;;;;;;0.97;0.87;;;2.20;1.00;;;;;;5072739;28;20498;-73
2021/04/07 00:42:39;;;;;;;1.45;0.88;;;2.20;1.00;;;;;;5072249;28;20183;-72
2021/04/07 00:45:07;;;;;;;1.45;1.05;;;2.10;1.00;;;;;;5072359;28;20702;-72
2021/04/07 00:47:33;;;;;;;3.83;1.27;;;2.20;1.00;;;;;;5072938;28;20183;-72
2021/04/07 00:49:59;;;;;;;0.77;0.77;;;2.30;1.00;;;;;;5072680;28;20243;-73
2021/04/07 00:52:25;;;;;;;3.43;1.33;;;2.30;1.00;;;;;;5072055;28;20186;-72
2021/04/07 00:54:53;;;;;;;4.07;1.10;;;2.30;1.00;;;;;;5072000;28;20776;-72
2021/04/07 00:57:23;;;;;;;0.77;0.77;;;2.30;1.00;;;;;;5071261;28;20195;-73
2021/04/07 00:59:52;;;;;;;1.60;1.50;;;2.40;1.00;;;;;;5076475;28;20293;-72
2021/04/07 01:02:19;;;;;;;3.22;1.40;;;2.40;1.00;;;;;;5076049;28;20179;-72
2021/04/07 01:04:46;;;;;;;3.13;1.38;;;2.50;1.00;;;;;;5076337;28;20163;-72
2021/04/07 01:07:13;;;;;;;0.88;0.88;;;2.50;1.00;;;;;;5075946;28;20197;-72
2021/04/07 01:09:41;;;;;;;7.22;1.83;;;2.60;1.00;;;;;;5078027;28;20632;-72
2021/04/07 01:12:07;;;;;;;8.13;1.20;;;2.60;1.00;;;;;;5076872;28;20168;-73
2021/04/07 01:14:34;;;;;;;1.33;0.98;;;2.60;1.00;;;;;;5076234;28;20167;-72
2021/04/07 01:17:01;;;;;;;2.20;1.42;;;2.60;1.00;;;;;;5075867;28;20163;-72
2021/04/07 01:19:28;;;;;;;0.98;0.95;;;2.60;1.00;;;;;;5076158;28;20187;-72
2021/04/07 01:21:58;;;;;;;1.55;1.45;;;2.70;1.00;;;;;;5075650;28;20200;-72
2021/04/07 01:24:24;;;;;;;1.38;1.27;;;2.60;1.00;;;;;;5076213;28;20502;-72
2021/04/07 01:26:51;;;;;;;1.23;0.95;;;2.50;1.00;;;;;;5075832;28;20570;-73
2021/04/07 01:29:17;;;;;;;3.83;1.88;;;2.50;1.00;;;;;;5076044;28;20191;-73
2021/04/07 01:31:47;;;;;;;1.33;1.23;;;2.50;1.00;;;;;;5075464;28;20170;-72
2021/04/07 01:34:27;;;;;;;1.02;1.00;;;2.60;1.00;;;;;;5074526;28;20387;-73
2021/04/07 01:36:56;;;;;;;2.55;1.33;;;2.50;1.00;;;;;;5075749;28;20194;-72
2021/04/07 01:39:22;;;;;;;2.28;1.45;;;;;;;;;;5075651;28;20240;-73
2021/04/07 01:41:49;;;;;;;1.40;0.88;;;2.60;1.00;;;;;;5075078;28;20201;-72
2021/04/07 01:44:17;;;;;;;5.05;1.83;;;2.60;1.00;;;;;;5075327;28;20167;-72
2021/04/07 01:46:44;;;;;;;1.85;1.17;;;2.60;1.00;;;;;;5075190;28;20187;-73
2021/04/07 01:49:11;;;;;;;1.35;1.15;;;2.70;1.00;;;;;;5075690;28;20498;-72
2021/04/07 01:51:40;;;;;;;5.55;1.40;;;2.70;1.00;;;;;;5074970;28;20219;-72
2021/04/07 01:54:08;;;;;;;6.25;1.30;;;2.70;1.00;;;;;;5074348;28;20221;-72
2021/04/07 01:56:53;;;;;;;2.10;1.50;;;2.70;1.00;;;;;;5074903;28;20210;-73
2021/04/07 01:59:21;;;;;;;3.15;1.42;;;;;;;;;;5075568;28;20210;-73
2021/04/07 02:01:48;;;;;;;2.22;1.33;;;2.70;1.00;;;;;;5074016;28;20270;-73
2021/04/07 02:04:15;;;;;;;2.15;1.30;;;2.80;1.00;;;;;;5072902;28;20214;-72
2021/04/07 02:06:47;;;;;;;1.75;1.23;;;2.80;1.00;;;;;;5081951;28;20544;-73
2021/04/07 02:09:17;;;;;;;3.47;1.80;;;2.80;1.00;;;;;;5074718;28;20191;-72
2021/04/07 02:11:49;;;;;;;10.60;1.85;;;2.80;1.00;;;;;;5074287;28;20167;-73
2021/04/07 02:14:17;;;;;;;2.22;1.67;;;2.80;1.00;;;;;;5074918;28;20167;-72
2021/04/07 02:16:53;;;;;;;1.35;1.20;;;2.90;1.00;;;;;;5075143;28;20163;-72
2021/04/07 02:19:23;;;;;;;3.35;2.05;;;2.90;1.00;;;;;;5074702;28;20179;-73
2021/04/07 02:22:03;;;;;;;3.40;1.65;;;2.90;1.00;;;;;;5073380;28;20174;-72
2021/04/07 02:24:30;;;;;;;4.38;1.60;;;2.90;1.00;;;;;;5075043;28;20614;-72
2021/04/07 02:26:56;;;;;;;2.50;1.65;;;2.90;1.00;;;;;;5074717;28;20199;-73
2021/04/07 02:29:22;;;;;;;5.60;2.00;;;2.90;1.00;;;;;;5074545;28;20210;-73
2021/04/07 02:31:48;;;;;;;1.67;1.10;;;2.90;1.00;;;;;;5073798;28;20451;-73
2021/04/07 02:34:14;;;;;;;3.97;2.07;;;;;;;;;;5071232;28;20187;-72
2021/04/07 02:36:40;;;;;;;3.03;1.27;;;2.80;1.00;;;;;;5074218;28;20257;-72
2021/04/07 02:39:05;;;;;;;3.67;1.07;;;2.80;1.00;;;;;;5075155;28;20245;-72
2021/04/07 02:41:32;;;;;;;2.07;1.40;;;2.80;1.00;;;;;;5074687;28;20167;-72
2021/04/07 02:43:58;;;;;;;3.03;1.83;;;2.70;1.00;;;;;;5074164;28;20156;-72
2021/04/07 02:46:24;;;;;;;1.77;1.30;;;2.70;1.00;;;;;;5073784;28;20209;-72
2021/04/07 02:48:49;;;;;;;1.33;1.20;;;2.50;1.00;;;;;;5074192;28;20200;-73
2021/04/07 02:51:15;;;;;;;2.30;1.40;;;;;;;;;;5073319;28;20409;-72
2021/04/07 02:53:41;;;;;;;1.80;1.42;;;2.60;1.00;;;;;;5072873;28;20590;-73
2021/04/07 02:56:07;;;;;;;3.27;1.67;;;2.60;1.00;;;;;;5072814;28;20187;-72
2021/04/07 02:58:33;;;;;;;2.50;1.53;;;2.70;1.00;;;;;;5073438;28;20653;-73
2021/04/07 03:01:04;;;;;;;12.30;1.43;;;2.70;1.00;;;;;;5074244;28;20164;-72
2021/04/07 03:03:34;;;;;;;1.50;1.15;;;2.70;1.00;;;;;;5073974;28;20653;-73
2021/04/07 03:05:59;;;;;;;1.50;1.30;;;2.70;1.00;;;;;;5074207;28;20653;-73
2021/04/07 03:08:28;;;;;;;7.30;1.87;;;2.70;1.00;;;;;;5073783;28;20171;-72
2021/04/07 03:10:54;;;;;;;1.98;1.50;;;;;;;;;;5073504;28;20239;-72
2021/04/07 03:13:20;;;;;;;1.10;1.00;;;2.80;1.00;;;;;;5073470;28;20209;-72
2021/04/07 03:15:46;;;;;;;1.10;1.10;;;2.80;1.00;;;;;;5073409;28;20168;-73
2021/04/07 03:18:12;;;;;;;2.83;1.02;;;2.80;1.00;;;;;;5073939;28;20250;-73
2021/04/07 03:20:40;;;;;;;1.70;1.27;;;2.70;1.00;;;;;;5072890;28;20258;-73
2021/04/07 03:23:05;;;;;;;1.33;1.23;;;2.70;1.00;;;;;;5073835;28;20171;-72
2021/04/07 03:25:34;;;;;;;5.60;1.23;;;2.70;1.00;;;;;;5073441;28;20519;-72
2021/04/07 03:28:04;;;;;;;0.85;0.85;;;2.80;1.00;;;;;;5073641;28;20627;-72
2021/04/07 03:30:48;;;;;;;1.90;1.60;;;2.80;1.00;;;;;;5073426;28;20225;-72
2021/04/07 03:33:35;;;;;;;1.75;1.08;;;2.80;1.00;;;;;;5073008;28;20179;-73
2021/04/07 03:36:02;;;;;;;0.65;0.65;;;2.90;1.00;;;;;;5073090;28;20183;-72
2021/04/07 03:38:28;;;;;;;1.95;1.30;;;2.90;1.00;;;;;;5073532;28;20208;-72
2021/04/07 03:40:54;;;;;;;1.65;1.35;;;2.80;1.00;;;;;;5072692;28;20252;-72
2021/04/07 03:43:22;;;;;;;0.80;0.80;;;2.80;1.00;;;;;;5073308;28;20623;-72
2021/04/07 03:45:50;;;;;;;2.78;1.55;;;2.80;1.00;;;;;;5071930;28;20193;-72
2021/04/07 03:48:18;;;;;;;20.13;1.70;;;2.90;1.00;;;;;;5073464;28;20261;-72
2021/04/07 03:50:45;;;;;;;1.00;1.00;;;2.90;1.00;;;;;;5072830;28;20200;-72
2021/04/07 03:53:11;;;;;;;14.48;2.55;;;2.80;1.00;;;;;;5073140;28;20187;-73
2021/04/07 03:55:38;;;;;;;4.72;1.45;;;2.90;1.00;;;;;;5072488;28;20171;-72
2021/04/07 03:58:40;;;;;;;0.90;0.90;;;2.90;1.00;;;;;;5072000;28;20247;-82
2021/04/07 04:01:51;;;;;;;0.90;0.90;;;3.00;1.00;;;;;;5073259;28;20198;-83
2021/04/07 04:04:22;;;;;;;1.17;1.10;;;3.00;1.00;;;;;;5073232;28;20167;-82
2021/04/07 04:06:48;;;;;;;3.05;1.35;;;3.00;1.00;;;;;;5073719;28;20175;-73
2021/04/07 04:09:15;;;;;;;1.60;1.00;;;;;;;;;;5071864;28;20198;-73
2021/04/07 04:11:40;;;;;;;4.95;1.20;;;3.00;1.00;;;;;;5072824;28;20163;-73
2021/04/07 04:14:10;;;;;;;1.67;1.07;;;3.00;1.00;;;;;;5073452;28;20660;-73
2021/04/07 04:16:36;;;;;;;2.55;1.27;;;3.00;1.00;;;;;;5073221;28;20178;-73
2021/04/07 04:19:02;;;;;;;0.63;0.63;;;3.00;1.00;;;;;;5072897;28;20183;-73
2021/04/07 04:21:28;;;;;;;1.13;0.73;;;;;;;;;;5073223;28;20170;-73
2021/04/07 04:23:54;;;;;;;6.95;1.13;;;;;;;;;;5073404;28;20186;-72
2021/04/07 04:26:20;;;;;;;0.98;0.93;;;2.90;1.00;;;;;;5072461;28;20176;-73
2021/04/07 04:28:46;;;;;;;11.33;1.23;;;2.90;1.00;;;;;;5073035;28;20206;-73
2021/04/07 04:31:11;;;;;;;6.23;1.37;;;2.90;1.00;;;;;;5072589;28;20557;-73
2021/04/07 04:33:40;;;;;;;1.50;1.40;;;2.90;1.00;;;;;;5076494;28;20201;-73
2021/04/07 04:36:10;;;;;;;2.95;1.25;;;2.90;1.00;;;;;;5075780;28;20571;-73
2021/04/07 04:38:36;;;;;;;0.82;0.82;;;2.80;1.00;;;;;;5076764;28;20179;-73
2021/04/07 04:41:01;;;;;;;1.93;1.00;;;2.80;1.00;;;;;;5077106;28;20225;-73
2021/04/07 04:43:27;;;;;;;3.53;1.13;;;;;;;;;;5076898;28;20159;-73
2021/04/07 04:45:53;;;;;;;1.50;1.05;;;;;;;;;;5076099;28;20634;-73
2021/04/07 04:48:19;;;;;;;4.75;1.10;;;2.90;1.00;;;;;;5076489;28;20539;-73
2021/04/07 04:50:45;;;;;;;1.70;1.30;;;2.90;1.00;;;;;;5076591;28;20195;-73
2021/04/07 04:53:16;;;;;;;1.40;1.10;;;3.00;1.00;;;;;;5065533;28;20195;-74
2021/04/07 04:55:46;;;;;;;10.02;2.58;;;3.00;1.00;;;;;;5061495;28;20521;-73
2021/04/07 04:58:11;;;;;;;2.90;0.90;;;3.00;1.00;;;;;;5075680;28;20536;-73
2021/04/07 05:00:37;;;;;;;1.30;0.70;;;;;;;;;;5076075;28;20171;-73
2021/04/07 05:03:03;;;;;;;2.47;1.40;;;2.90;1.00;;;;;;5076154;28;20257;-73
2021/04/07 05:05:34;;;;;;;2.10;0.90;;;2.80;1.00;;;;;;5076666;28;20457;-73
2021/04/07 05:08:04;;;;;;;1.73;1.00;;;2.80;1.00;;;;;;5076209;28;20240;-73
2021/04/07 05:10:34;;;;;;;0.88;0.50;;;2.80;1.00;;;;;;5075218;28;20210;-74
2021/04/07 05:13:04;;;;;;;2.67;0.90;;;2.80;1.00;;;;;;5076371;28;20531;-77
2021/04/07 05:15:34;;;;;;;1.38;1.20;;;2.80;1.00;;;;;;5075610;28;20545;-73
2021/04/07 05:17:59;;;;;;;1.67;1.20;;;2.90;1.00;;;;;;5068552;28;20741;-73
2021/04/07 05:20:25;;;;;;;0.93;0.90;;;2.90;1.00;;;;;;5068934;28;20275;-72
2021/04/07 05:22:51;;;;;;;3.20;1.20;;;;;;;;;;5056186;28;20160;-74
2021/04/07 05:25:22;;;;;;;4.88;1.42;;;;;;;;;;5056286;28;20444;-74
2021/04/07 05:27:52;;;;;;;1.48;0.90;;;3.00;1.00;;;;;;5056286;28;20604;-74
2021/04/07 05:30:22;;;;;;;2.05;1.00;;;3.10;1.00;;;;;;5057720;28;20520;-75
2021/04/07 05:32:58;;;;;;;4.78;1.52;;;;;;;;;;5075706;28;20156;-73
2021/04/07 05:35:24;;;;;;;1.00;0.90;;;3.00;1.00;;;;;;5075439;28;20634;-73
2021/04/07 05:37:49;;;;;;;0.80;0.80;;;3.10;1.00;;;;;;5075579;28;20191;-73
2021/04/07 05:40:15;;;;;;;3.63;2.30;;;3.10;1.00;;;;;;5076166;28;20178;-73
2021/04/07 05:42:41;;;;;;;1.07;0.60;;;3.10;1.00;;;;;;5060980;28;20186;-73
2021/04/07 05:45:07;;;;;;;2.20;0.90;;;3.00;1.00;;;;;;5063753;28;20436;-74
2021/04/07 05:47:33;;;;;;;0.80;0.80;;;3.00;1.00;;;;;;5075052;28;20238;-73
2021/04/07 05:49:59;;;;;;;1.47;0.70;;;;;;;;;;5074421;28;20298;-73
2021/04/07 05:52:25;;;;;;;0.97;0.90;;;;;;;;;;5074926;28;20166;-73
2021/04/07 05:54:51;;;;;;;0.67;0.50;;;;;;;;;;5075186;28;20447;-73
2021/04/07 05:57:17;;;;;;;0.90;0.73;;;;;;;;;;5072240;28;20444;-73
2021/04/07 05:59:43;;;;;;;5.32;1.38;;;;;;;;;;5073200;28;20516;-73
2021/04/07 06:02:09;;;;;;;1.17;0.70;;;;;;;;;;5074522;28;20243;-73
2021/04/07 06:04:35;;;;;;;0.70;0.70;;;;;;;;;;5074305;28;20442;-73
2021/04/07 06:07:01;;;;;;;0.70;0.70;;;;;;;;;;5074676;28;20394;-73
2021/04/07 06:09:27;;;;;;;3.70;0.60;;;;;;;;;;5074444;28;20944;-73
2021/04/07 06:11:53;;;;;;;5.03;1.03;;;;;;;;;;5074832;28;20480;-74
2021/04/07 06:14:19;;;;;;;2.45;0.80;;;;;;;;;;5073989;28;20826;-74
2021/04/07 06:16:45;;;;;;;1.15;0.90;;;;;;;;;;5074394;28;20639;-73
2021/04/07 06:19:11;;;;;;;0.53;0.53;;;;;;;;;;5073939;28;20205;-74
2021/04/07 06:21:37;;;;;;;0.98;0.68;;;;;;;;;;5074124;28;20433;-74
2021/04/07 06:24:03;;;;;;;0.70;0.70;;;3.30;1.00;;;;;;5074121;28;20151;-73
2021/04/07 06:26:29;;;;;;;0.93;0.93;;;;;;;;;;5072849;28;20178;-73
2021/04/07 06:28:58;;;;;;;29.47;1.00;;;3.30;1.00;;;;;;5073903;28;20445;-73
2021/04/07 06:31:24;;;;;;;5.00;0.98;;;;;;;;;;5072394;28;20881;-73
2021/04/07 06:33:50;;;;;;;0.53;0.40;;;;;;;;;;5068788;28;20171;-73
2021/04/07 06:36:16;;;;;;;4.00;1.50;;;;;;;;;;5068238;28;20429;-74
2021/04/07 06:38:41;;;;;;;6.28;1.10;;;3.40;1.00;;;;;;5073829;28;20451;-73
2021/04/07 06:41:09;;;;;;;0.97;0.90;;;;;;;;;;5074044;28;20638;-74
2021/04/07 06:43:35;;;;;;;1.27;0.80;;;;;;;;;;5073192;28;20171;-73
2021/04/07 06:46:01;;;;;;;2.83;1.23;;;;;;;;;;5073654;28;20198;-73
2021/04/07 06:48:28;;;;;;;2.78;0.80;;;3.60;1.00;;;;;;5073359;28;20406;-73
2021/04/07 06:50:54;;;;;;;0.75;0.70;;;;;;;;;;5072049;28;20203;-73
2021/04/07 06:53:27;;;;;;;0.70;0.70;;;3.60;1.00;;;;;;5073574;28;20167;-73
2021/04/07 06:55:53;;;;;;;1.40;0.70;;;;;;;;;;5072390;28;20182;-73
2021/04/07 06:58:19;;;;;;;1.13;0.70;;;;;;;;;;5072362;28;20179;-73
2021/04/07 07:00:45;;;;;;;1.27;0.85;;;;;;;;;;5071170;28;20253;-73
2021/04/07 07:03:13;;;;;;;3.10;1.17;;;3.70;1.00;;;;;;5072448;28;20609;-73
2021/04/07 07:05:47;;;;;;;1.10;0.50;;;3.70;1.00;;;;;;5073247;28;20504;-72
2021/04/07 07:08:15;;;;;;;12.13;1.25;;;3.60;1.00;;;;;;5071474;28;20634;-73
2021/04/07 07:10:42;;;;;;;1.63;0.60;;;3.70;1.00;;;;;;5073582;28;20191;-74
2021/04/07 07:13:10;;;;;;;2.15;0.80;;;3.60;1.00;;;;;;5071634;28;20635;-73
2021/04/07 07:15:37;;;;;;;1.80;0.90;;;3.50;1.00;;;;;;5072630;28;20170;-73
2021/04/07 07:18:04;;;;;;;3.25;0.90;;;3.60;1.00;;;;;;5073150;28;20189;-73
2021/04/07 07:20:32;;;;;;;1.30;0.70;;;3.60;1.00;;;;;;5072618;28;20656;-73
2021/04/07 07:22:58;;;;;;;1.50;0.82;;;;;;;;;;5073173;28;20159;-73
2021/04/07 07:25:25;;;;;;;0.88;0.88;;;;;;;;;;5073135;28;20159;-73
2021/04/07 07:27:56;;;;;;;3.42;0.77;;;3.70;1.00;;;;;;5073163;28;20159;-73
2021/04/07 07:30:22;;;;;;;0.90;0.80;;;;;;;;;;5072823;28;20199;-73
2021/04/07 07:32:48;;;;;;;2.00;0.88;;;;;;;;;;5072611;28;20167;-73
2021/04/07 07:35:16;;;;;;;0.80;0.70;;;3.60;1.00;;;;;;5072138;28;20266;-72
2021/04/07 07:37:43;;;;;;;0.82;0.82;;;3.60;1.00;;;;;;5073041;28;20178;-73
2021/04/07 07:40:24;;;;;;;3.08;0.88;;;3.60;1.00;;;;;;5072925;28;20534;-73
2021/04/07 07:42:50;;;;;;;0.68;0.47;;;;;;;;;;5072650;28;20171;-74
2021/04/07 07:45:28;;;;;;;0.80;0.52;;;3.40;1.00;;;;;;5072535;28;20574;-73
2021/04/07 07:48:09;;;;;;;0.50;0.40;;;3.30;1.00;;;;;;5072802;28;20274;-74
2021/04/07 07:50:40;;;;;;;0.73;0.70;;;3.30;1.00;;;;;;5072435;28;20190;-73
2021/04/07 07:53:18;;;;;;;1.20;1.10;;;3.30;1.00;;;;;;5072801;28;20167;-74
2021/04/07 07:55:45;;;;;;;1.90;1.27;;;3.20;1.00;;;;;;5073108;28;20159;-72
2021/04/07 07:58:11;;;;;;;3.53;1.08;;;;;;;;;;5071602;28;20216;-72
2021/04/07 08:00:37;;;;;;;3.25;1.23;;;;;;;;;;5069182;28;20206;-73
2021/04/07 08:03:13;;;;;;;1.52;0.88;;;3.40;1.00;;;;;;5052545;28;20281;-73
2021/04/07 08:05:40;;;;;;;0.93;0.90;;;;;;;;;;5062120;28;20178;-73
2021/04/07 08:08:06;;;;;;;1.20;1.05;;;4.10;1.00;;;;;;5075335;28;20181;-73
2021/04/07 08:10:33;;;;;;;2.47;1.00;;;;;;;;;;5076547;28;20195;-73
2021/04/07 08:13:02;;;;;;;1.75;1.05;;;4.40;1.00;;;;;;5077085;28;20177;-74
2021/04/07 08:15:30;;;;;;;0.88;0.77;;;4.70;1.00;;;;;;5076570;28;20611;-73
2021/04/07 08:17:56;;;;;;;1.17;1.08;;;;;;;;;;5075930;28;20637;-74
2021/04/07 08:20:24;;;;;;;3.33;1.42;;;4.90;1.00;;;;;;5075850;28;20179;-73
2021/04/07 08:22:54;;;;;;;4.60;1.13;;;5.00;1.00;;;;;;5076616;28;20748;-74
2021/04/07 08:25:22;;;;;;;1.60;0.98;;;5.20;1.00;;;;;;5085700;28;20187;-73
2021/04/07 08:27:53;;;;;;;0.50;0.47;;;5.20;1.00;;;;;;5075126;28;20516;-73
2021/04/07 08:30:20;;;;;;;1.77;1.02;;;5.10;1.00;;;;;;5075892;28;20543;-73
2021/04/07 08:32:48;;;;;;;3.90;1.38;;;5.10;1.00;;;;;;5074220;28;20543;-73
2021/04/07 08:35:15;;;;;;;2.05;0.60;;;5.10;1.00;;;;;;5075913;28;20167;-73
2021/04/07 08:37:41;;;;;;;0.73;0.73;;;5.10;1.00;;;;;;5076324;28;20175;-73
2021/04/07 08:40:14;;;;;;;2.40;1.00;;;5.20;1.00;;;;;;5075767;28;20167;-73
2021/04/07 08:42:40;;;;;;;1.00;0.83;;;;;;;;;;5063888;28;20436;-73
2021/04/07 08:45:09;;;;;;;1.80;1.10;;;5.30;1.00;;;;;;5072059;28;20415;-73
2021/04/07 08:48:02;;;;;;;1.35;1.08;;;5.30;1.00;;;;;;5075880;28;20229;-73
2021/04/07 08:50:30;;;;;;;2.58;0.90;;;5.20;1.00;;;;;;5074522;28;20198;-73
2021/04/07 08:52:56;;;;;;;4.20;1.60;;;;;;;;;;5076015;28;20162;-73
2021/04/07 08:55:27;;;;;;;4.00;1.00;;;5.30;1.00;;;;;;5075760;28;20413;-73
2021/04/07 08:58:01;;;;;;;1.02;0.93;;;5.40;1.00;;;;;;5076101;28;20492;-74
2021/04/07 09:00:29;;;;;;;6.97;1.10;;;5.50;1.00;;;;;;5074649;28;20672;-74
2021/04/07 09:03:08;;;;;;;1.48;1.23;;;5.70;1.00;;;;;;5074408;28;20951;-74
2021/04/07 09:05:39;;;;;;;3.57;0.90;;;5.70;1.00;;;;;;5074437;28;20527;-74
2021/04/07 09:08:08;;;;;;;0.83;0.80;;;5.70;1.00;;;;;;5075541;28;20397;-74
2021/04/07 09:10:47;;;;;;;1.47;0.77;;;5.60;1.00;;;;;;5075462;28;20498;-74
2021/04/07 09:13:17;;;;;;;1.60;0.93;;;5.50;1.00;;;;;;5075866;28;20424;-72
2021/04/07 09:16:01;;;;;;;1.33;0.60;;;5.60;1.00;;;;;;5055405;28;20406;-73
2021/04/07 09:18:38;;;;;;;1.47;0.70;;;5.80;1.00;;;;;;5068362;28;20519;-73
2021/04/07 09:21:05;;;;;;;1.13;0.90;;;5.80;1.00;;;;;;5055325;28;20781;-73
2021/04/07 09:23:35;;;;;;;7.83;1.17;;;5.80;1.00;;;;;;5063235;28;20393;-73
2021/04/07 09:26:13;;;;;;;2.70;1.20;;;5.80;1.00;;;;;;5075055;28;20392;-73
2021/04/07 09:28:41;;;;;;;2.87;1.00;;;6.00;1.00;;;;;;5074794;28;20928;-73
2021/04/07 09:31:13;;;;;;;2.40;1.07;;;6.30;1.00;;;;;;5074908;28;20397;-73
2021/04/07 09:33:48;;;;;;;0.80;0.80;;;6.40;1.00;;;;;;5074999;28;20422;-74
2021/04/07 09:36:15;;;;;;;3.63;0.80;;;6.50;1.00;;;;;;5056468;28;20409;-72
2021/04/07 09:38:51;;;;;;;1.10;0.87;;;6.40;1.00;;;;;;5054983;28;20446;-75
2021/04/07 09:41:17;;;;;;;0.93;0.90;;;;;;;;;;5054884;28;20399;-72
2021/04/07 09:43:43;;;;;;;1.00;0.90;;;;;;;;;;5055417;28;20394;-72
2021/04/07 09:46:10;;;;;;;8.30;2.43;;;6.00;1.00;;;;;;5071936;28;20189;-74
2021/04/07 09:48:36;;;;;;;1.10;0.67;;;;;;;;;;5074687;28;20402;-73
2021/04/07 09:51:02;;;;;;;18.65;1.27;;;;;;;;;;5073423;28;20807;-73
2021/04/07 09:53:28;;;;;;;3.25;1.10;;;5.60;1.00;;;;;;5074047;28;20662;-72
2021/04/07 09:56:01;;;;;;;3.58;1.45;;;;;;;;;;5074013;28;20191;-73
2021/04/07 09:58:54;;;;;;;0.60;0.60;;;5.10;1.00;;;;;;5075891;28;20171;-73
2021/04/07 10:01:20;;;;;;;1.55;0.73;;;5.20;1.00;;;;;;5070403;28;20195;-73
2021/04/07 10:03:54;;;;;;;3.00;1.13;;;5.30;1.00;;;;;;5073690;28;20185;-73
2021/04/07 10:06:22;;;;;;;2.10;1.23;;;5.30;1.00;;;;;;5074289;28;20500;-73
2021/04/07 10:09:08;;;;;;;6.68;1.00;;;5.30;1.00;;;;;;5070797;28;20171;-73
2021/04/07 10:11:58;;;;;;;5.38;1.08;;;5.40;1.00;;;;;;5075203;28;20175;-73
2021/04/07 10:14:25;;;;;;;4.63;1.03;;;;;;;;;;5052156;28;20274;-73
2021/04/07 10:16:52;;;;;;;0.70;0.70;;;5.40;1.00;;;;;;5052997;28;20398;-72
2021/04/07 10:19:18;;;;;;;0.80;0.60;;;5.40;1.00;;;;;;5052511;28;20192;-73
2021/04/07 10:21:45;;;;;;;1.80;1.03;;;;;;;;;;5051970;28;20426;-74
2021/04/07 10:24:16;;;;;;;3.15;1.17;;;5.40;1.00;;;;;;5051143;28;20187;-73
2021/04/07 10:26:44;;;;;;;1.37;0.80;;;5.40;1.00;;;;;;5052352;28;20172;-73
2021/04/07 10:29:21;;;;;;;1.00;0.90;;;5.40;1.00;;;;;;5052640;28;20450;-75
2021/04/07 10:31:54;;;;;;;1.00;0.80;;;5.30;1.00;;;;;;5052551;28;20397;-79
2021/04/07 10:34:30;;;;;;;0.60;0.60;;;5.40;1.00;;;;;;5052771;28;20233;-73
2021/04/07 10:36:57;;;;;;;0.70;0.60;;;;;;;;;;5052724;28;20526;-73
2021/04/07 10:39:23;;;;;;;1.35;0.73;;;;;;;;;;5052426;28;20767;-74
2021/04/07 10:42:15;;;;;;;1.38;0.70;;;5.60;1.00;;;;;;5052687;28;20167;-81
2021/04/07 10:45:04;;;;;;;13.53;0.73;;;5.60;1.00;;;;;;5056734;28;20240;-75
2021/04/07 10:47:40;;;;;;;0.87;0.70;;;5.60;1.00;;;;;;5074451;28;20762;-76
2021/04/07 10:50:08;;;;;;;0.93;0.70;;;5.50;1.00;;;;;;5074242;28;20993;-74
2021/04/07 10:52:41;;;;;;;3.03;0.82;;;5.40;1.00;;;;;;5074630;28;20429;-73
2021/04/07 10:55:19;;;;;;;15.40;1.50;;;5.30;1.00;;;;;;5073986;28;20163;-73
2021/04/07 10:57:48;;;;;;;2.50;1.13;;;5.20;1.00;;;;;;5073187;28;20653;-74
2021/04/07 11:00:35;;;;;;;2.05;1.15;;;;;;;;;;5074412;28;20732;-73
2021/04/07 11:03:01;;;;;;;0.77;0.60;;;;;;;;;;5072828;28;20197;-73
2021/04/07 11:05:40;;;;;;;1.08;1.02;;;4.60;1.00;;;;;;5073460;28;20225;-73
2021/04/07 11:08:08;;;;;;;0.98;0.50;;;;;;;;;;5074004;28;20173;-73
2021/04/07 11:10:37;;;;;;;2.88;1.05;;;;;;;;;;5074310;28;20183;-73
2021/04/07 11:13:04;;;;;;;3.72;0.90;;;4.30;1.00;;;;;;5074603;28;20181;-73
2021/04/07 11:15:30;;;;;;;1.15;0.90;;;4.30;1.00;;;;;;5073442;28;20182;-72
2021/04/07 11:17:56;;;;;;;3.28;0.90;;;;;;;;;;5073799;28;20163;-73
2021/04/07 11:20:25;;;;;;;1.13;0.60;;;4.70;1.00;;;;;;5073726;28;20224;-74
2021/04/07 11:22:50;;;;;;;1.00;0.75;;;4.80;1.00;;;;;;5071963;28;20263;-74
2021/04/07 11:25:17;;;;;;;7.23;2.00;;;5.00;1.00;;;;;;5073445;28;20258;-73
2021/04/07 11:27:45;;;;;;;6.53;0.95;;;5.20;1.00;;;;;;5073405;28;20169;-73
2021/04/07 11:30:12;;;;;;;1.43;0.80;;;5.40;1.00;;;;;;5072932;28;20282;-74
2021/04/07 11:32:43;;;;;;;5.80;1.00;;;;;;;;;;5071653;28;20417;-74
2021/04/07 11:35:23;;;;;;;9.63;1.77;;;5.30;1.00;;;;;;5073061;28;20405;-73
2021/04/07 11:37:58;;;;;;;3.43;1.20;;;5.30;1.00;;;;;;5073125;28;20417;-74
2021/04/07 11:45:35;;;;;;;1.90;1.23;;;5.60;1.00;;;;;;5073441;28;20463;-73
2021/04/07 11:48:01;;;;;;;3.83;1.30;;;5.60;1.00;;;;;;5072787;28;20420;-73
2021/04/07 11:50:29;;;;;;;3.50;0.93;;;5.50;1.00;;;;;;5073235;28;20540;-72
2021/04/07 11:52:55;;;;;;;6.30;1.60;;;5.50;1.00;;;;;;5073601;28;20242;-73
2021/04/07 11:55:22;;;;;;;4.85;1.10;;;5.60;1.00;;;;;;5073466;28;20413;-74
2021/04/07 11:57:48;;;;;;;0.83;0.80;;;5.60;1.00;;;;;;5071586;28;20520;-79
2021/04/07 12:00:15;;;;;;;0.83;0.83;;;5.50;1.00;;;;;;5071672;28;20425;-76
2021/04/07 12:02:52;;;;;;;5.63;1.43;;;5.50;1.00;;;;;;5079148;28;20657;-73
2021/04/07 12:05:24;;;;;;;0.98;0.63;;;;;;;;;;5072087;28;20924;-72
2021/04/07 12:07:50;;;;;;;1.10;1.00;;;5.40;1.00;;;;;;5070990;28;20179;-72
2021/04/07 12:10:20;;;;;;;1.55;0.70;;;5.50;1.00;;;;;;5072976;28;20444;-73
2021/04/07 12:12:50;;;;;;;0.60;0.50;;;5.40;1.00;;;;;;5073106;28;20171;-72
2021/04/07 12:15:16;;;;;;;0.60;0.60;;;5.30;1.00;;;;;;5072959;28;20417;-73
2021/04/07 12:17:43;;;;;;;1.35;0.75;;;5.20;1.00;;;;;;5072897;28;20170;-72
2021/04/07 12:20:12;;;;;;;0.88;0.80;;;5.20;1.00;;;;;;5073002;28;20179;-72
2021/04/07 12:22:38;;;;;;;2.65;0.90;;;5.20;1.00;;;;;;5060043;28;20178;-72
2021/04/07 12:25:06;;;;;;;1.00;0.77;;;5.20;1.00;;;;;;5070661;28;20172;-72
2021/04/07 12:27:31;;;;;;;0.90;0.63;;;5.20;1.00;;;;;;5073043;28;20409;-72
2021/04/07 12:29:57;;;;;;;1.37;0.77;;;5.30;1.00;;;;;;5072941;28;20213;-72
2021/04/07 12:32:29;;;;;;;1.00;1.00;;;5.40;1.00;;;;;;5071862;28;20599;-72
2021/04/07 12:34:55;;;;;;;4.97;1.55;;;5.40;1.00;;;;;;5072763;28;20219;-72
2021/04/07 12:37:24;;;;;;;0.60;0.60;;;5.50;1.00;;;;;;5073080;28;20266;-72
2021/04/07 12:39:50;;;;;;;1.07;0.80;;;5.60;1.00;;;;;;5072972;28;20187;-72
2021/04/07 12:42:17;;;;;;;2.40;1.10;;;5.70;1.00;;;;;;5072672;28;20404;-73
2021/04/07 12:44:43;;;;;;;0.63;0.60;;;5.70;1.00;;;;;;5072465;28;20210;-72
2021/04/07 12:47:09;;;;;;;0.60;0.60;;;5.60;1.00;;;;;;5072701;28;20260;-73
2021/04/07 12:49:35;;;;;;;0.90;0.63;;;;;;;;;;5072997;28;20437;-72
2021/04/07 12:52:01;;;;;;;0.60;0.57;;;5.70;1.00;;;;;;5072872;28;20452;-73
2021/04/07 12:54:28;;;;;;;0.70;0.70;;;5.80;1.00;;;;;;5075536;28;20195;-73
2021/04/07 12:56:54;;;;;;;1.90;0.90;;;;;;;;;;5076587;28;20248;-73
2021/04/07 12:59:22;;;;;;;0.93;0.93;;;5.80;1.00;;;;;;5076396;28;20912;-72
2021/04/07 13:01:48;;;;;;;1.38;0.70;;;5.70;1.00;;;;;;5075953;28;20932;-73
2021/04/07 13:04:16;;;;;;;2.20;0.93;;;5.60;1.00;;;;;;5075507;28;20186;-73
2021/04/07 13:06:42;;;;;;;2.00;0.60;;;5.70;1.00;;;;;;5075328;28;20876;-72
2021/04/07 13:09:08;;;;;;;1.30;0.80;;;;;;;;;;5076303;28;20547;-70
2021/04/07 13:11:34;;;;;;;0.73;0.60;;;5.90;1.00;;;;;;5076134;28;20164;-72
2021/04/07 13:13:59;;;;;;;0.70;0.70;;;6.00;1.00;;;;;;5075062;28;20179;-73
2021/04/07 13:16:26;;;;;;;0.90;0.90;;;5.80;1.00;;;;;;5076346;28;20246;-73
2021/04/07 13:18:52;;;;;;;0.87;0.70;;;5.90;1.00;;;;;;5076107;28;20164;-73
2021/04/07 13:21:18;;;;;;;1.63;0.97;;;;;;;;;;5075555;28;20413;-73
2021/04/07 13:23:44;;;;;;;1.73;1.13;;;;;;;;;;5076068;28;20564;-73
2021/04/07 13:26:10;;;;;;;1.93;0.67;;;5.50;1.00;;;;;;5074864;28;20179;-73
2021/04/07 13:28:36;;;;;;;1.13;1.03;;;5.30;1.00;;;;;;5074318;28;20418;-72
2021/04/07 13:31:05;;;;;;;1.95;1.23;;;5.30;1.00;;;;;;5074915;28;20449;-73
2021/04/07 13:33:46;;;;;;;0.68;0.68;;;5.30;1.00;;;;;;5072358;28;20262;-74
2021/04/07 13:36:21;;;;;;;1.00;0.90;;;5.10;1.00;;;;;;5074835;28;20163;-74
2021/04/07 13:38:58;;;;;;;0.63;0.63;;;5.00;1.00;;;;;;5074734;28;20274;-73
2021/04/07 13:43:52;;;;;;;3.45;1.23;;;5.00;1.00;;;;;;5075515;28;20919;-71